sensor_id;sensor_type;location;lat;lon;timestamp;pressure;altitude;pressure_sealevel;temperature;humidity
2549;BME280;1284;53.520;10.248;2023-04-25T00:00:34;99685.38;;;11.79;87.77
2549;BME280;1284;53.520;10.248;2023-04-25T00:02:59;99693.88;;;11.78;88.55
2549;BME280;1284;53.520;10.248;2023-04-25T00:05:28;99685.00;;;11.74;88.31
2549;BME280;1284;53.520;10.248;2023-04-25T00:07:54;99688.44;;;11.57;89.24
2549;BME280;1284;53.520;10.248;2023-04-25T00:10:20;99691.94;;;11.75;88.91
2549;BME280;1284;53.520;10.248;2023-04-25T00:12:45;99690.00;;;11.79;88.28
2549;BME280;1284;53.520;10.248;2023-04-25T00:15:12;99693.06;;;11.60;88.83
2549;BME280;1284;53.520;10.248;2023-04-25T00:17:37;99690.75;;;11.51;90.18
2549;BME280;1284;53.520;10.248;2023-04-25T00:20:04;99687.69;;;11.53;90.13
2549;BME280;1284;53.520;10.248;2023-04-25T00:22:30;99692.72;;;11.68;89.29
2549;BME280;1284;53.520;10.248;2023-04-25T00:24:56;99694.63;;;11.57;90.33
2549;BME280;1284;53.520;10.248;2023-04-25T00:27:25;99703.09;;;11.63;89.86
2549;BME280;1284;53.520;10.248;2023-04-25T00:29:51;99702.34;;;11.66;89.65
2549;BME280;1284;53.520;10.248;2023-04-25T00:32:17;99705.38;;;11.54;90.21
2549;BME280;1284;53.520;10.248;2023-04-25T00:34:42;99696.94;;;11.59;90.03
2549;BME280;1284;53.520;10.248;2023-04-25T00:37:08;99707.69;;;11.52;90.50
2549;BME280;1284;53.520;10.248;2023-04-25T00:39:33;99713.84;;;11.52;90.21
2549;BME280;1284;53.520;10.248;2023-04-25T00:41:59;99711.56;;;11.51;90.68
2549;BME280;1284;53.520;10.248;2023-04-25T00:44:26;99700.78;;;11.51;90.13
2549;BME280;1284;53.520;10.248;2023-04-25T00:46:53;99709.19;;;11.25;90.31
2549;BME280;1284;53.520;10.248;2023-04-25T00:49:19;99710.75;;;11.29;91.35
2549;BME280;1284;53.520;10.248;2023-04-25T00:51:45;99714.56;;;11.14;91.98
2549;BME280;1284;53.520;10.248;2023-04-25T00:54:12;99716.53;;;11.24;91.81
2549;BME280;1284;53.520;10.248;2023-04-25T00:56:38;99716.91;;;11.30;91.97
2549;BME280;1284;53.520;10.248;2023-04-25T00:59:03;99725.75;;;11.20;91.62
2549;BME280;1284;53.520;10.248;2023-04-25T01:01:30;99722.66;;;11.21;91.99
2549;BME280;1284;53.520;10.248;2023-04-25T01:03:58;99725.75;;;11.13;91.03
2549;BME280;1284;53.520;10.248;2023-04-25T01:06:27;99732.31;;;11.19;90.80
2549;BME280;1284;53.520;10.248;2023-04-25T01:08:52;99728.88;;;11.36;89.75
2549;BME280;1284;53.520;10.248;2023-04-25T01:11:18;99736.56;;;11.30;88.71
2549;BME280;1284;53.520;10.248;2023-04-25T01:13:45;99731.13;;;11.27;88.90
2549;BME280;1284;53.520;10.248;2023-04-25T01:16:11;99726.13;;;11.15;88.75
2549;BME280;1284;53.520;10.248;2023-04-25T01:18:38;99734.59;;;11.24;87.69
2549;BME280;1284;53.520;10.248;2023-04-25T01:21:09;99733.06;;;11.19;87.67
2549;BME280;1284;53.520;10.248;2023-04-25T01:23:37;99730.34;;;11.16;87.36
2549;BME280;1284;53.520;10.248;2023-04-25T01:26:06;99730.34;;;11.05;87.35
2549;BME280;1284;53.520;10.248;2023-04-25T01:28:33;99727.25;;;11.03;87.69
2549;BME280;1284;53.520;10.248;2023-04-25T01:30:59;99736.09;;;11.07;87.13
2549;BME280;1284;53.520;10.248;2023-04-25T01:33:43;99734.97;;;11.12;86.24
2549;BME280;1284;53.520;10.248;2023-04-25T01:36:09;99740.00;;;11.17;85.03
2549;BME280;1284;53.520;10.248;2023-04-25T01:38:36;99732.97;;;10.95;85.62
2549;BME280;1284;53.520;10.248;2023-04-25T01:41:01;99741.50;;;11.14;83.91
2549;BME280;1284;53.520;10.248;2023-04-25T01:43:27;99746.13;;;11.07;83.93
2549;BME280;1284;53.520;10.248;2023-04-25T01:45:53;99746.84;;;11.04;84.20
2549;BME280;1284;53.520;10.248;2023-04-25T01:48:21;99742.25;;;11.01;84.18
2549;BME280;1284;53.520;10.248;2023-04-25T01:50:47;99746.47;;;11.02;83.57
2549;BME280;1284;53.520;10.248;2023-04-25T01:53:13;99744.59;;;11.16;82.02
2549;BME280;1284;53.520;10.248;2023-04-25T01:55:42;99744.53;;;10.99;82.43
2549;BME280;1284;53.520;10.248;2023-04-25T01:58:10;99741.47;;;11.04;82.70
2549;BME280;1284;53.520;10.248;2023-04-25T02:01:01;99747.53;;;10.79;81.27
2549;BME280;1284;53.520;10.248;2023-04-25T02:03:32;99753.66;;;10.69;82.27
2549;BME280;1284;53.520;10.248;2023-04-25T02:05:59;99739.84;;;10.81;81.96
2549;BME280;1284;53.520;10.248;2023-04-25T02:08:26;99745.97;;;10.71;81.45
2549;BME280;1284;53.520;10.248;2023-04-25T02:14:36;99766.69;;;10.60;81.53
2549;BME280;1284;53.520;10.248;2023-04-25T02:17:12;99774.50;;;10.86;79.59
2549;BME280;1284;53.520;10.248;2023-04-25T02:19:38;99766.75;;;10.74;79.70
2549;BME280;1284;53.520;10.248;2023-04-25T02:22:06;99770.13;;;10.61;79.55
2549;BME280;1284;53.520;10.248;2023-04-25T02:24:31;99765.94;;;10.70;79.20
2549;BME280;1284;53.520;10.248;2023-04-25T02:26:59;99770.59;;;10.73;79.12
2549;BME280;1284;53.520;10.248;2023-04-25T02:29:24;99774.50;;;10.86;78.36
2549;BME280;1284;53.520;10.248;2023-04-25T02:31:50;99776.78;;;10.84;78.11
2549;BME280;1284;53.520;10.248;2023-04-25T02:34:16;99777.47;;;10.67;78.23
2549;BME280;1284;53.520;10.248;2023-04-25T02:36:42;99780.25;;;10.81;77.65
2549;BME280;1284;53.520;10.248;2023-04-25T02:39:07;99776.75;;;10.74;77.52
2549;BME280;1284;53.520;10.248;2023-04-25T02:41:33;99771.78;;;10.83;76.87
2549;BME280;1284;53.520;10.248;2023-04-25T02:44:02;99770.59;;;10.73;76.73
2549;BME280;1284;53.520;10.248;2023-04-25T02:46:28;99774.31;;;10.51;76.38
2549;BME280;1284;53.520;10.248;2023-04-25T02:48:53;99770.78;;;10.40;76.56
2549;BME280;1284;53.520;10.248;2023-04-25T02:51:19;99777.25;;;10.29;76.71
2549;BME280;1284;53.520;10.248;2023-04-25T02:53:44;99772.22;;;10.24;76.90
2549;BME280;1284;53.520;10.248;2023-04-25T02:56:10;99782.63;;;10.32;76.29
2549;BME280;1284;53.520;10.248;2023-04-25T02:58:36;99783.66;;;10.14;77.21
2549;BME280;1284;53.520;10.248;2023-04-25T03:01:01;99773.78;;;10.28;76.51
2549;BME280;1284;53.520;10.248;2023-04-25T03:03:27;99783.81;;;10.35;75.89
2549;BME280;1284;53.520;10.248;2023-04-25T03:05:52;99781.94;;;10.42;75.68
2549;BME280;1284;53.520;10.248;2023-04-25T03:08:23;99785.13;;;10.55;74.59
2549;BME280;1284;53.520;10.248;2023-04-25T03:10:50;99780.56;;;10.69;73.99
2549;BME280;1284;53.520;10.248;2023-04-25T03:13:55;99786.66;;;10.59;73.93
2549;BME280;1284;53.520;10.248;2023-04-25T03:17:23;99792.41;;;10.54;73.28
2549;BME280;1284;53.520;10.248;2023-04-25T03:32:57;99806.31;;;10.13;72.63
2549;BME280;1284;53.520;10.248;2023-04-25T03:43:59;99824.66;;;10.00;71.83
2549;BME280;1284;53.520;10.248;2023-04-25T03:47:08;99817.91;;;9.80;72.29
2549;BME280;1284;53.520;10.248;2023-04-25T03:49:34;99828.91;;;9.68;72.60
2549;BME280;1284;53.520;10.248;2023-04-25T03:52:02;99824.44;;;9.79;71.87
2549;BME280;1284;53.520;10.248;2023-04-25T03:54:33;99832.22;;;9.54;72.06
2549;BME280;1284;53.520;10.248;2023-04-25T03:57:12;99836.66;;;9.73;70.23
2549;BME280;1284;53.520;10.248;2023-04-25T03:59:39;99827.31;;;9.60;70.20
2549;BME280;1284;53.520;10.248;2023-04-25T04:02:06;99833.03;;;9.58;70.22
2549;BME280;1284;53.520;10.248;2023-04-25T04:04:34;99832.75;;;9.67;69.56
2549;BME280;1284;53.520;10.248;2023-04-25T04:07:00;99846.25;;;9.70;69.42
2549;BME280;1284;53.520;10.248;2023-04-25T04:09:29;99841.25;;;9.69;68.27
2549;BME280;1284;53.520;10.248;2023-04-25T04:11:56;99849.66;;;9.64;69.10
2549;BME280;1284;53.520;10.248;2023-04-25T04:14:22;99850.59;;;9.85;67.71
2549;BME280;1284;53.520;10.248;2023-04-25T04:16:50;99862.53;;;9.84;66.73
2549;BME280;1284;53.520;10.248;2023-04-25T04:19:17;99843.78;;;9.95;65.59
2549;BME280;1284;53.520;10.248;2023-04-25T04:22:00;99850.91;;;9.73;65.85
2549;BME280;1284;53.520;10.248;2023-04-25T04:24:26;99859.03;;;9.47;66.09
2549;BME280;1284;53.520;10.248;2023-04-25T04:26:57;99862.50;;;9.48;66.39
2549;BME280;1284;53.520;10.248;2023-04-25T04:29:55;99869.63;;;9.66;65.95
2549;BME280;1284;53.520;10.248;2023-04-25T04:32:29;99857.53;;;9.83;63.90
2549;BME280;1284;53.520;10.248;2023-04-25T04:34:56;99861.19;;;9.68;63.78
2549;BME280;1284;53.520;10.248;2023-04-25T04:37:23;99863.41;;;9.59;64.30
2549;BME280;1284;53.520;10.248;2023-04-25T04:39:50;99876.22;;;9.72;62.39
2549;BME280;1284;53.520;10.248;2023-04-25T04:42:24;99870.69;;;9.58;63.82
2549;BME280;1284;53.520;10.248;2023-04-25T04:45:20;99873.16;;;9.74;63.62
2549;BME280;1284;53.520;10.248;2023-04-25T04:48:05;99881.81;;;9.57;64.56
2549;BME280;1284;53.520;10.248;2023-04-25T04:53:51;99886.13;;;9.65;64.85
2549;BME280;1284;53.520;10.248;2023-04-25T04:56:45;99891.91;;;9.67;64.66
2549;BME280;1284;53.520;10.248;2023-04-25T04:59:45;99891.28;;;9.80;64.75
2549;BME280;1284;53.520;10.248;2023-04-25T05:02:40;99894.81;;;9.88;64.55
2549;BME280;1284;53.520;10.248;2023-04-25T05:05:24;99902.47;;;9.86;63.97
2549;BME280;1284;53.520;10.248;2023-04-25T05:08:09;99903.22;;;9.83;64.63
2549;BME280;1284;53.520;10.248;2023-04-25T05:10:51;99907.63;;;9.98;63.86
2549;BME280;1284;53.520;10.248;2023-04-25T05:13:23;99909.06;;;9.88;64.36
2549;BME280;1284;53.520;10.248;2023-04-25T05:16:01;99899.97;;;10.03;63.92
2549;BME280;1284;53.520;10.248;2023-04-25T05:18:37;99907.00;;;10.12;63.56
2549;BME280;1284;53.520;10.248;2023-04-25T05:21:22;99907.03;;;10.15;64.06
2549;BME280;1284;53.520;10.248;2023-04-25T05:24:04;99917.09;;;10.22;63.09
2549;BME280;1284;53.520;10.248;2023-04-25T05:26:53;99913.19;;;10.16;64.03
2549;BME280;1284;53.520;10.248;2023-04-25T05:29:37;99926.97;;;10.11;65.07
2549;BME280;1284;53.520;10.248;2023-04-25T05:32:18;99933.66;;;10.24;64.91
2549;BME280;1284;53.520;10.248;2023-04-25T05:34:46;99935.59;;;10.27;64.69
2549;BME280;1284;53.520;10.248;2023-04-25T05:37:21;99942.22;;;10.36;64.64
2549;BME280;1284;53.520;10.248;2023-04-25T05:40:04;99926.41;;;10.28;64.98
2549;BME280;1284;53.520;10.248;2023-04-25T05:42:54;99937.00;;;10.14;65.95
2549;BME280;1284;53.520;10.248;2023-04-25T05:45:42;99937.47;;;10.23;65.03
2549;BME280;1284;53.520;10.248;2023-04-25T05:48:25;99936.25;;;10.17;64.68
2549;BME280;1284;53.520;10.248;2023-04-25T05:51:17;99935.03;;;10.11;65.02
2549;BME280;1284;53.520;10.248;2023-04-25T05:54:09;99950.66;;;9.98;66.02
2549;BME280;1284;53.520;10.248;2023-04-25T05:56:35;99949.00;;;9.90;66.96
2549;BME280;1284;53.520;10.248;2023-04-25T05:59:01;99955.38;;;10.08;66.52
2549;BME280;1284;53.520;10.248;2023-04-25T06:01:26;99944.44;;;9.94;66.46
2549;BME280;1284;53.520;10.248;2023-04-25T06:03:52;99952.53;;;9.94;66.53
2549;BME280;1284;53.520;10.248;2023-04-25T06:06:18;99959.53;;;10.02;66.68
2549;BME280;1284;53.520;10.248;2023-04-25T06:08:44;99955.88;;;10.17;65.56
2549;BME280;1284;53.520;10.248;2023-04-25T06:11:11;99955.38;;;10.08;65.93
2549;BME280;1284;53.520;10.248;2023-04-25T06:13:36;99960.97;;;9.92;67.48
2549;BME280;1284;53.520;10.248;2023-04-25T06:16:02;99960.25;;;9.99;68.10
2549;BME280;1284;53.520;10.248;2023-04-25T06:18:27;99961.84;;;10.03;68.76
2549;BME280;1284;53.520;10.248;2023-04-25T06:20:53;99965.63;;;10.32;67.63
2549;BME280;1284;53.520;10.248;2023-04-25T06:23:18;99961.78;;;10.30;66.68
2549;BME280;1284;53.520;10.248;2023-04-25T06:26:00;99959.41;;;10.25;68.24
2549;BME280;1284;53.520;10.248;2023-04-25T06:28:26;99963.53;;;10.55;67.31
2549;BME280;1284;53.520;10.248;2023-04-25T06:30:52;99969.06;;;10.69;66.24
2549;BME280;1284;53.520;10.248;2023-04-25T06:33:19;99971.41;;;10.74;66.17
2549;BME280;1284;53.520;10.248;2023-04-25T06:35:45;99970.50;;;10.60;66.61
2549;BME280;1284;53.520;10.248;2023-04-25T06:38:13;99970.97;;;10.69;66.57
2549;BME280;1284;53.520;10.248;2023-04-25T06:40:42;99963.38;;;10.78;66.22
2549;BME280;1284;53.520;10.248;2023-04-25T06:43:09;99958.03;;;10.85;65.87
2549;BME280;1284;53.520;10.248;2023-04-25T06:45:55;99970.84;;;11.02;64.70
2549;BME280;1284;53.520;10.248;2023-04-25T06:48:22;99976.59;;;10.94;63.44
2549;BME280;1284;53.520;10.248;2023-04-25T06:50:48;99977.66;;;10.85;64.04
2549;BME280;1284;53.520;10.248;2023-04-25T06:53:13;99970.91;;;10.62;65.06
2549;BME280;1284;53.520;10.248;2023-04-25T06:55:41;99987.94;;;10.73;64.73
2549;BME280;1284;53.520;10.248;2023-04-25T06:58:12;99984.44;;;10.69;65.33
2549;BME280;1284;53.520;10.248;2023-04-25T07:00:57;99981.78;;;10.72;66.74
2549;BME280;1284;53.520;10.248;2023-04-25T07:03:25;99987.59;;;10.78;66.89
2549;BME280;1284;53.520;10.248;2023-04-25T07:05:54;99993.59;;;11.05;66.30
2549;BME280;1284;53.520;10.248;2023-04-25T07:08:20;99982.06;;;11.11;67.35
2549;BME280;1284;53.520;10.248;2023-04-25T07:10:46;99991.72;;;11.12;66.86
2549;BME280;1284;53.520;10.248;2023-04-25T07:13:12;99991.81;;;11.26;64.46
2549;BME280;1284;53.520;10.248;2023-04-25T07:15:37;99994.06;;;11.17;64.49
2549;BME280;1284;53.520;10.248;2023-04-25T07:18:03;99994.06;;;11.21;65.29
2549;BME280;1284;53.520;10.248;2023-04-25T07:20:29;99988.06;;;11.41;64.45
2549;BME280;1284;53.520;10.248;2023-04-25T07:22:56;100000.41;;;11.46;64.93
2549;BME280;1284;53.520;10.248;2023-04-25T07:25:22;99995.09;;;11.60;64.95
2549;BME280;1284;53.520;10.248;2023-04-25T07:27:49;99998.19;;;11.62;63.05
2549;BME280;1284;53.520;10.248;2023-04-25T07:30:17;100005.44;;;11.51;62.98
2549;BME280;1284;53.520;10.248;2023-04-25T07:32:42;100005.06;;;11.49;63.30
2549;BME280;1284;53.520;10.248;2023-04-25T07:35:08;100014.63;;;11.39;63.26
2549;BME280;1284;53.520;10.248;2023-04-25T07:37:35;100014.34;;;11.58;62.73
2549;BME280;1284;53.520;10.248;2023-04-25T07:40:10;100000.38;;;11.42;63.89
2549;BME280;1284;53.520;10.248;2023-04-25T07:42:40;100005.03;;;11.42;64.05
2549;BME280;1284;53.520;10.248;2023-04-25T07:45:06;100010.84;;;11.51;63.64
2549;BME280;1284;53.520;10.248;2023-04-25T07:47:33;100016.56;;;11.46;64.05
2549;BME280;1284;53.520;10.248;2023-04-25T07:49:58;100018.63;;;11.05;65.43
2549;BME280;1284;53.520;10.248;2023-04-25T07:52:24;100019.94;;;10.78;66.38
2549;BME280;1284;53.520;10.248;2023-04-25T07:54:56;100025.41;;;10.88;66.49
2549;BME280;1284;53.520;10.248;2023-04-25T07:57:33;100027.53;;;11.13;65.53
2549;BME280;1284;53.520;10.248;2023-04-25T08:00:00;100026.66;;;11.02;65.69
2549;BME280;1284;53.520;10.248;2023-04-25T08:02:30;100010.19;;;11.10;66.34
2549;BME280;1284;53.520;10.248;2023-04-25T08:04:55;100017.47;;;11.06;67.31
2549;BME280;1284;53.520;10.248;2023-04-25T08:07:21;100017.28;;;11.32;65.26
2549;BME280;1284;53.520;10.248;2023-04-25T08:09:51;100017.34;;;11.46;64.78
2549;BME280;1284;53.520;10.248;2023-04-25T08:12:23;100005.22;;;11.77;63.71
2549;BME280;1284;53.520;10.248;2023-04-25T08:14:49;100014.50;;;11.79;64.15
2549;BME280;1284;53.520;10.248;2023-04-25T08:17:15;100019.25;;;12.11;62.90
2549;BME280;1284;53.520;10.248;2023-04-25T08:19:41;100042.84;;;12.31;62.79
2549;BME280;1284;53.520;10.248;2023-04-25T08:22:12;100040.59;;;12.54;61.15
2549;BME280;1284;53.520;10.248;2023-04-25T08:24:48;100035.97;;;12.62;60.59
2549;BME280;1284;53.520;10.248;2023-04-25T08:27:14;100039.44;;;12.66;58.73
2549;BME280;1284;53.520;10.248;2023-04-25T08:29:41;100039.47;;;12.80;57.31
2549;BME280;1284;53.520;10.248;2023-04-25T08:32:07;100054.53;;;12.74;57.40
2549;BME280;1284;53.520;10.248;2023-04-25T08:34:35;100059.53;;;12.58;57.18
2549;BME280;1284;53.520;10.248;2023-04-25T08:37:03;100056.00;;;12.43;57.35
2549;BME280;1284;53.520;10.248;2023-04-25T08:39:56;100055.94;;;12.26;58.84
2549;BME280;1284;53.520;10.248;2023-04-25T08:42:45;100060.16;;;12.23;58.85
2549;BME280;1284;53.520;10.248;2023-04-25T08:45:13;100065.88;;;12.04;59.92
2549;BME280;1284;53.520;10.248;2023-04-25T08:47:42;100082.03;;;11.97;60.05
2549;BME280;1284;53.520;10.248;2023-04-25T08:50:10;100074.31;;;11.92;60.47
2549;BME280;1284;53.520;10.248;2023-04-25T08:52:43;100076.53;;;11.76;62.03
2549;BME280;1284;53.520;10.248;2023-04-25T08:55:12;100071.44;;;11.67;63.99
2549;BME280;1284;53.520;10.248;2023-04-25T08:57:40;100084.09;;;11.63;64.67
2549;BME280;1284;53.520;10.248;2023-04-25T09:00:09;100080.72;;;11.70;64.43
2549;BME280;1284;53.520;10.248;2023-04-25T09:02:38;100081.22;;;11.90;62.61
2549;BME280;1284;53.520;10.248;2023-04-25T09:05:05;100080.09;;;11.94;63.17
2549;BME280;1284;53.520;10.248;2023-04-25T09:07:32;100074.00;;;12.11;60.55
2549;BME280;1284;53.520;10.248;2023-04-25T09:09:58;100077.41;;;11.94;59.36
2549;BME280;1284;53.520;10.248;2023-04-25T09:15:03;100092.53;;;12.16;57.96
2549;BME280;1284;53.520;10.248;2023-04-25T09:17:57;100096.50;;;12.43;57.58
2549;BME280;1284;53.520;10.248;2023-04-25T09:20:25;100103.47;;;12.51;57.22
2549;BME280;1284;53.520;10.248;2023-04-25T09:23:05;100101.97;;;12.68;56.74
2549;BME280;1284;53.520;10.248;2023-04-25T09:25:35;100113.22;;;12.88;56.27
2549;BME280;1284;53.520;10.248;2023-04-25T09:28:04;100119.75;;;12.80;58.10
2549;BME280;1284;53.520;10.248;2023-04-25T09:30:32;100116.66;;;12.70;57.86
2549;BME280;1284;53.520;10.248;2023-04-25T09:33:08;100128.97;;;12.64;56.75
2549;BME280;1284;53.520;10.248;2023-04-25T09:35:37;100144.78;;;12.59;56.67
2549;BME280;1284;53.520;10.248;2023-04-25T09:38:14;100138.13;;;12.39;54.71
2549;BME280;1284;53.520;10.248;2023-04-25T09:41:13;100137.75;;;12.37;55.36
2549;BME280;1284;53.520;10.248;2023-04-25T09:43:48;100143.59;;;12.53;55.09
2549;BME280;1284;53.520;10.248;2023-04-25T09:46:14;100153.69;;;12.70;54.84
2549;BME280;1284;53.520;10.248;2023-04-25T09:48:49;100141.75;;;12.75;54.22
2549;BME280;1284;53.520;10.248;2023-04-25T09:51:17;100155.03;;;13.22;55.94
2549;BME280;1284;53.520;10.248;2023-04-25T09:56:36;100165.78;;;14.34;51.16
2549;BME280;1284;53.520;10.248;2023-04-25T09:59:07;100156.09;;;14.40;51.11
2549;BME280;1284;53.520;10.248;2023-04-25T10:01:36;100195.56;;;14.41;51.63
2549;BME280;1284;53.520;10.248;2023-04-25T10:04:11;100204.88;;;14.05;56.24
2549;BME280;1284;53.520;10.248;2023-04-25T10:06:48;100194.47;;;13.58;59.63
2549;BME280;1284;53.520;10.248;2023-04-25T10:09:16;100192.13;;;13.53;61.04
2549;BME280;1284;53.520;10.248;2023-04-25T10:11:44;100190.97;;;13.36;63.44
2549;BME280;1284;53.520;10.248;2023-04-25T10:14:12;100184.41;;;13.51;63.76
2549;BME280;1284;53.520;10.248;2023-04-25T10:16:38;100175.16;;;13.77;62.37
2549;BME280;1284;53.520;10.248;2023-04-25T10:19:04;100192.53;;;13.87;60.36
2549;BME280;1284;53.520;10.248;2023-04-25T10:21:31;100188.66;;;13.81;60.72
2549;BME280;1284;53.520;10.248;2023-04-25T10:23:57;100181.69;;;14.18;58.42
2549;BME280;1284;53.520;10.248;2023-04-25T10:26:24;100177.78;;;14.33;57.96
2549;BME280;1284;53.520;10.248;2023-04-25T10:29:01;100185.00;;;14.75;56.25
2549;BME280;1284;53.520;10.248;2023-04-25T10:31:29;100183.34;;;14.95;54.71
2549;BME280;1284;53.520;10.248;2023-04-25T10:33:54;100193.63;;;15.28;53.19
2549;BME280;1284;53.520;10.248;2023-04-25T10:36:22;100184.91;;;15.58;52.22
2549;BME280;1284;53.520;10.248;2023-04-25T10:38:49;100187.13;;;15.70;51.75
2549;BME280;1284;53.520;10.248;2023-04-25T10:41:20;100183.13;;;15.89;50.48
2549;BME280;1284;53.520;10.248;2023-04-25T10:43:50;100188.50;;;15.92;49.57
2549;BME280;1284;53.520;10.248;2023-04-25T10:46:26;100186.44;;;15.63;48.81
2549;BME280;1284;53.520;10.248;2023-04-25T10:48:56;100198.22;;;15.42;46.64
2549;BME280;1284;53.520;10.248;2023-04-25T10:51:23;100196.25;;;15.39;46.79
2549;BME280;1284;53.520;10.248;2023-04-25T10:58:47;100187.81;;;16.25;45.12
2549;BME280;1284;53.520;10.248;2023-04-25T11:01:19;100192.81;;;16.27;45.42
2549;BME280;1284;53.520;10.248;2023-04-25T11:03:45;100183.75;;;16.03;45.81
2549;BME280;1284;53.520;10.248;2023-04-25T11:06:23;100194.56;;;16.07;46.15
2549;BME280;1284;53.520;10.248;2023-04-25T11:08:51;100196.25;;;16.35;44.46
2549;BME280;1284;53.520;10.248;2023-04-25T11:11:17;100187.13;;;16.52;43.97
2549;BME280;1284;53.520;10.248;2023-04-25T11:13:44;100194.16;;;16.49;44.73
2549;BME280;1284;53.520;10.248;2023-04-25T11:16:10;100183.34;;;16.42;44.63
2549;BME280;1284;53.520;10.248;2023-04-25T11:18:35;100196.66;;;16.33;44.78
2549;BME280;1284;53.520;10.248;2023-04-25T11:21:02;100202.19;;;16.22;45.24
2549;BME280;1284;53.520;10.248;2023-04-25T11:23:29;100205.47;;;16.03;45.30
2549;BME280;1284;53.520;10.248;2023-04-25T11:25:55;100203.00;;;15.75;47.25
2549;BME280;1284;53.520;10.248;2023-04-25T11:28:21;100209.94;;;15.25;48.09
2549;BME280;1284;53.520;10.248;2023-04-25T11:30:50;100201.13;;;15.03;50.28
2549;BME280;1284;53.520;10.248;2023-04-25T11:33:16;100199.91;;;15.15;49.56
2549;BME280;1284;53.520;10.248;2023-04-25T11:35:42;100206.63;;;15.58;49.03
2549;BME280;1284;53.520;10.248;2023-04-25T11:38:07;100211.03;;;15.89;49.61
2549;BME280;1284;53.520;10.248;2023-04-25T11:40:35;100209.38;;;16.02;47.90
2549;BME280;1284;53.520;10.248;2023-04-25T11:43:01;100215.47;;;15.69;47.42
2549;BME280;1284;53.520;10.248;2023-04-25T11:45:27;100205.97;;;15.40;48.67
2549;BME280;1284;53.520;10.248;2023-04-25T11:47:54;100213.03;;;15.27;50.11
2549;BME280;1284;53.520;10.248;2023-04-25T11:50:19;100224.53;;;15.45;50.24
2549;BME280;1284;53.520;10.248;2023-04-25T11:52:47;100226.22;;;15.25;50.37
2549;BME280;1284;53.520;10.248;2023-04-25T11:55:15;100233.13;;;15.33;49.14
2549;BME280;1284;53.520;10.248;2023-04-25T11:57:42;100239.88;;;15.04;49.07
2549;BME280;1284;53.520;10.248;2023-04-25T12:00:11;100252.03;;;14.61;49.17
2549;BME280;1284;53.520;10.248;2023-04-25T12:02:45;100243.59;;;14.02;50.14
2549;BME280;1284;53.520;10.248;2023-04-25T12:05:12;100245.13;;;14.03;50.15
2549;BME280;1284;53.520;10.248;2023-04-25T12:07:38;100258.28;;;13.94;50.22
2549;BME280;1284;53.520;10.248;2023-04-25T12:10:05;100258.66;;;14.14;48.86
2549;BME280;1284;53.520;10.248;2023-04-25T12:12:32;100257.09;;;14.23;49.36
2549;BME280;1284;53.520;10.248;2023-04-25T12:15:08;100263.66;;;14.61;49.14
2549;BME280;1284;53.520;10.248;2023-04-25T12:17:34;100261.25;;;14.81;49.56
2549;BME280;1284;53.520;10.248;2023-04-25T12:20:06;100249.59;;;14.98;48.67
2549;BME280;1284;53.520;10.248;2023-04-25T12:22:32;100256.47;;;15.16;48.30
2549;BME280;1284;53.520;10.248;2023-04-25T12:24:58;100261.50;;;15.18;48.80
2549;BME280;1284;53.520;10.248;2023-04-25T12:27:25;100255.97;;;15.39;48.40
2549;BME280;1284;53.520;10.248;2023-04-25T12:29:53;100277.00;;;15.90;47.72
2549;BME280;1284;53.520;10.248;2023-04-25T12:32:18;100255.97;;;15.97;47.12
2549;BME280;1284;53.520;10.248;2023-04-25T12:34:44;100243.81;;;16.12;45.97
2549;BME280;1284;53.520;10.248;2023-04-25T12:37:10;100248.03;;;16.17;46.25
2549;BME280;1284;53.520;10.248;2023-04-25T12:39:36;100254.88;;;16.32;46.27
2549;BME280;1284;53.520;10.248;2023-04-25T12:42:01;100266.53;;;16.33;45.19
2549;BME280;1284;53.520;10.248;2023-04-25T12:44:28;100258.09;;;16.23;44.95
2549;BME280;1284;53.520;10.248;2023-04-25T12:46:53;100263.53;;;16.23;45.18
2549;BME280;1284;53.520;10.248;2023-04-25T12:49:20;100259.50;;;16.39;43.83
2549;BME280;1284;53.520;10.248;2023-04-25T12:51:45;100265.41;;;16.26;42.85
2549;BME280;1284;53.520;10.248;2023-04-25T12:54:12;100262.91;;;16.46;41.42
2549;BME280;1284;53.520;10.248;2023-04-25T12:56:37;100259.75;;;16.51;40.38
2549;BME280;1284;53.520;10.248;2023-04-25T12:59:03;100277.69;;;16.49;41.03
2549;BME280;1284;53.520;10.248;2023-04-25T13:01:29;100282.81;;;16.36;39.28
2549;BME280;1284;53.520;10.248;2023-04-25T13:03:54;100270.19;;;16.15;40.56
2549;BME280;1284;53.520;10.248;2023-04-25T13:06:21;100281.00;;;15.71;41.60
2549;BME280;1284;53.520;10.248;2023-04-25T13:08:47;100280.16;;;15.78;41.29
2549;BME280;1284;53.520;10.248;2023-04-25T13:11:12;100294.34;;;15.48;42.31
2549;BME280;1284;53.520;10.248;2023-04-25T13:13:40;100292.59;;;14.99;47.93
2549;BME280;1284;53.520;10.248;2023-04-25T13:16:06;100294.91;;;14.97;50.53
2549;BME280;1284;53.520;10.248;2023-04-25T13:18:32;100307.00;;;14.79;51.61
2549;BME280;1284;53.520;10.248;2023-04-25T13:20:58;100313.13;;;14.93;48.62
2549;BME280;1284;53.520;10.248;2023-04-25T13:23:26;100313.88;;;15.04;47.27
2549;BME280;1284;53.520;10.248;2023-04-25T13:25:52;100316.19;;;15.02;47.16
2549;BME280;1284;53.520;10.248;2023-04-25T13:28:18;100315.72;;;15.28;45.43
2549;BME280;1284;53.520;10.248;2023-04-25T13:30:44;100316.34;;;15.64;43.91
2549;BME280;1284;53.520;10.248;2023-04-25T13:33:09;100313.63;;;15.61;44.84
2549;BME280;1284;53.520;10.248;2023-04-25T13:35:36;100315.19;;;15.58;45.57
2549;BME280;1284;53.520;10.248;2023-04-25T13:38:02;100331.81;;;15.71;44.85
2549;BME280;1284;53.520;10.248;2023-04-25T13:40:28;100359.13;;;15.21;44.59
2549;BME280;1284;53.520;10.248;2023-04-25T13:42:55;100354.63;;;14.62;45.73
2549;BME280;1284;53.520;10.248;2023-04-25T13:45:23;100349.63;;;14.43;47.10
2549;BME280;1284;53.520;10.248;2023-04-25T13:47:49;100341.84;;;14.10;47.76
2549;BME280;1284;53.520;10.248;2023-04-25T13:50:14;100340.63;;;13.79;48.58
2549;BME280;1284;53.520;10.248;2023-04-25T13:52:41;100340.28;;;13.98;48.56
2549;BME280;1284;53.520;10.248;2023-04-25T13:55:07;100334.50;;;14.10;48.97
2549;BME280;1284;53.520;10.248;2023-04-25T13:57:34;100346.16;;;14.28;49.69
2549;BME280;1284;53.520;10.248;2023-04-25T14:00:00;100342.25;;;14.54;48.80